sensor_id;sensor_type;location;lat;lon;timestamp;P1;durP1;ratioP1;P2;durP2;ratioP2
23078;SDS011;11707;50.830;4.364;2023-07-22T00:01:36;9.95;;;7.80;;
23078;SDS011;11707;50.830;4.364;2023-07-22T00:04:04;10.00;;;8.25;;
23078;SDS011;11707;50.830;4.364;2023-07-22T00:06:29;9.50;;;7.32;;
23078;SDS011;11707;50.830;4.364;2023-07-22T00:08:55;11.90;;;7.78;;
23078;SDS011;11707;50.830;4.364;2023-07-22T00:11:23;14.18;;;7.88;;
23078;SDS011;11707;50.830;4.364;2023-07-22T00:13:51;12.48;;;8.30;;
23078;SDS011;11707;50.830;4.364;2023-07-22T00:16:17;13.25;;;8.60;;
23078;SDS011;11707;50.830;4.364;2023-07-22T00:18:47;9.93;;;7.65;;
23078;SDS011;11707;50.830;4.364;2023-07-22T00:21:13;14.45;;;8.27;;
23078;SDS011;11707;50.830;4.364;2023-07-22T00:23:39;12.05;;;7.70;;
23078;SDS011;11707;50.830;4.364;2023-07-22T00:26:05;9.38;;;7.70;;
23078;SDS011;11707;50.830;4.364;2023-07-22T00:28:31;14.00;;;7.72;;
23078;SDS011;11707;50.830;4.364;2023-07-22T00:30:56;17.00;;;8.27;;
23078;SDS011;11707;50.830;4.364;2023-07-22T00:33:22;12.15;;;8.18;;
23078;SDS011;11707;50.830;4.364;2023-07-22T00:35:48;11.13;;;8.00;;
23078;SDS011;11707;50.830;4.364;2023-07-22T00:38:17;15.60;;;8.82;;
23078;SDS011;11707;50.830;4.364;2023-07-22T00:40:46;15.15;;;8.80;;
23078;SDS011;11707;50.830;4.364;2023-07-22T00:43:11;10.68;;;8.38;;
23078;SDS011;11707;50.830;4.364;2023-07-22T00:45:37;13.88;;;7.82;;
23078;SDS011;11707;50.830;4.364;2023-07-22T00:48:03;12.00;;;7.90;;
23078;SDS011;11707;50.830;4.364;2023-07-22T00:50:33;11.63;;;8.25;;
23078;SDS011;11707;50.830;4.364;2023-07-22T00:53:00;13.45;;;7.82;;
23078;SDS011;11707;50.830;4.364;2023-07-22T00:55:27;12.52;;;8.32;;
23078;SDS011;11707;50.830;4.364;2023-07-22T00:57:55;14.75;;;8.20;;
23078;SDS011;11707;50.830;4.364;2023-07-22T01:00:21;10.93;;;7.70;;
23078;SDS011;11707;50.830;4.364;2023-07-22T01:02:47;12.98;;;8.43;;
23078;SDS011;11707;50.830;4.364;2023-07-22T01:05:12;11.93;;;7.38;;
23078;SDS011;11707;50.830;4.364;2023-07-22T01:07:38;12.10;;;8.68;;
23078;SDS011;11707;50.830;4.364;2023-07-22T01:10:06;13.27;;;8.88;;
23078;SDS011;11707;50.830;4.364;2023-07-22T01:12:33;15.63;;;8.50;;
23078;SDS011;11707;50.830;4.364;2023-07-22T01:14:59;16.35;;;9.25;;
23078;SDS011;11707;50.830;4.364;2023-07-22T01:17:25;15.20;;;8.93;;
23078;SDS011;11707;50.830;4.364;2023-07-22T01:19:51;14.95;;;8.85;;
23078;SDS011;11707;50.830;4.364;2023-07-22T01:22:17;13.18;;;8.48;;
23078;SDS011;11707;50.830;4.364;2023-07-22T01:24:46;13.05;;;9.00;;
23078;SDS011;11707;50.830;4.364;2023-07-22T01:27:12;14.00;;;8.23;;
23078;SDS011;11707;50.830;4.364;2023-07-22T01:29:39;12.60;;;8.07;;
23078;SDS011;11707;50.830;4.364;2023-07-22T01:32:07;15.30;;;8.90;;
23078;SDS011;11707;50.830;4.364;2023-07-22T01:34:37;12.02;;;8.50;;
23078;SDS011;11707;50.830;4.364;2023-07-22T01:37:07;13.07;;;7.78;;
23078;SDS011;11707;50.830;4.364;2023-07-22T01:39:32;15.60;;;8.13;;
23078;SDS011;11707;50.830;4.364;2023-07-22T01:41:58;13.48;;;8.73;;
23078;SDS011;11707;50.830;4.364;2023-07-22T01:44:23;15.13;;;8.48;;
23078;SDS011;11707;50.830;4.364;2023-07-22T01:46:49;10.88;;;8.20;;
23078;SDS011;11707;50.830;4.364;2023-07-22T01:49:17;13.45;;;8.68;;
23078;SDS011;11707;50.830;4.364;2023-07-22T01:51:42;15.60;;;9.57;;
23078;SDS011;11707;50.830;4.364;2023-07-22T01:54:08;12.38;;;9.05;;
23078;SDS011;11707;50.830;4.364;2023-07-22T01:56:37;15.43;;;8.65;;
23078;SDS011;11707;50.830;4.364;2023-07-22T01:59:04;13.18;;;9.30;;
23078;SDS011;11707;50.830;4.364;2023-07-22T02:01:32;12.93;;;8.48;;
23078;SDS011;11707;50.830;4.364;2023-07-22T02:03:58;13.88;;;9.25;;
23078;SDS011;11707;50.830;4.364;2023-07-22T02:06:23;17.35;;;8.95;;
23078;SDS011;11707;50.830;4.364;2023-07-22T02:08:49;12.65;;;8.80;;
23078;SDS011;11707;50.830;4.364;2023-07-22T02:11:17;11.70;;;8.63;;
23078;SDS011;11707;50.830;4.364;2023-07-22T02:13:43;14.77;;;9.52;;
23078;SDS011;11707;50.830;4.364;2023-07-22T02:16:09;17.25;;;9.43;;
23078;SDS011;11707;50.830;4.364;2023-07-22T02:18:41;12.57;;;9.05;;
23078;SDS011;11707;50.830;4.364;2023-07-22T02:21:07;15.15;;;10.25;;
23078;SDS011;11707;50.830;4.364;2023-07-22T02:23:33;16.23;;;8.57;;
23078;SDS011;11707;50.830;4.364;2023-07-22T02:25:58;13.73;;;9.93;;
23078;SDS011;11707;50.830;4.364;2023-07-22T02:28:24;15.05;;;9.48;;
23078;SDS011;11707;50.830;4.364;2023-07-22T02:30:53;17.98;;;11.38;;
23078;SDS011;11707;50.830;4.364;2023-07-22T02:33:19;15.95;;;10.18;;
23078;SDS011;11707;50.830;4.364;2023-07-22T02:35:47;15.75;;;10.05;;
23078;SDS011;11707;50.830;4.364;2023-07-22T02:38:14;21.60;;;11.07;;
23078;SDS011;11707;50.830;4.364;2023-07-22T02:40:40;17.20;;;10.70;;
23078;SDS011;11707;50.830;4.364;2023-07-22T02:43:06;17.50;;;9.60;;
23078;SDS011;11707;50.830;4.364;2023-07-22T02:45:34;19.33;;;10.48;;
23078;SDS011;11707;50.830;4.364;2023-07-22T02:48:01;18.17;;;11.48;;
23078;SDS011;11707;50.830;4.364;2023-07-22T02:50:27;20.35;;;10.90;;
23078;SDS011;11707;50.830;4.364;2023-07-22T02:52:55;23.20;;;12.23;;
23078;SDS011;11707;50.830;4.364;2023-07-22T02:55:36;25.83;;;11.88;;
23078;SDS011;11707;50.830;4.364;2023-07-22T02:58:08;15.77;;;10.20;;
23078;SDS011;11707;50.830;4.364;2023-07-22T03:00:36;17.92;;;11.73;;
23078;SDS011;11707;50.830;4.364;2023-07-22T03:03:05;21.38;;;11.02;;
23078;SDS011;11707;50.830;4.364;2023-07-22T03:05:31;16.88;;;11.30;;
23078;SDS011;11707;50.830;4.364;2023-07-22T03:07:59;19.67;;;11.52;;
23078;SDS011;11707;50.830;4.364;2023-07-22T03:10:25;22.23;;;12.20;;
23078;SDS011;11707;50.830;4.364;2023-07-22T03:12:51;16.95;;;12.02;;
23078;SDS011;11707;50.830;4.364;2023-07-22T03:15:22;17.42;;;11.88;;
23078;SDS011;11707;50.830;4.364;2023-07-22T03:17:53;25.52;;;11.95;;
23078;SDS011;11707;50.830;4.364;2023-07-22T03:20:26;21.13;;;12.00;;
23078;SDS011;11707;50.830;4.364;2023-07-22T03:22:52;18.55;;;11.38;;
23078;SDS011;11707;50.830;4.364;2023-07-22T03:25:20;22.35;;;11.80;;
23078;SDS011;11707;50.830;4.364;2023-07-22T03:27:46;24.50;;;12.90;;
23078;SDS011;11707;50.830;4.364;2023-07-22T03:30:13;19.17;;;11.30;;
23078;SDS011;11707;50.830;4.364;2023-07-22T03:32:40;16.63;;;10.65;;
23078;SDS011;11707;50.830;4.364;2023-07-22T03:35:08;21.33;;;12.00;;
23078;SDS011;11707;50.830;4.364;2023-07-22T03:37:37;23.50;;;11.57;;
23078;SDS011;11707;50.830;4.364;2023-07-22T03:40:03;18.33;;;11.73;;
23078;SDS011;11707;50.830;4.364;2023-07-22T03:42:39;20.90;;;11.30;;
23078;SDS011;11707;50.830;4.364;2023-07-22T03:45:06;20.30;;;12.20;;
23078;SDS011;11707;50.830;4.364;2023-07-22T03:47:33;20.38;;;11.13;;
23078;SDS011;11707;50.830;4.364;2023-07-22T03:49:59;24.52;;;11.63;;
23078;SDS011;11707;50.830;4.364;2023-07-22T03:52:25;21.83;;;11.18;;
23078;SDS011;11707;50.830;4.364;2023-07-22T03:54:50;16.23;;;11.32;;
23078;SDS011;11707;50.830;4.364;2023-07-22T03:57:18;24.10;;;12.13;;
23078;SDS011;11707;50.830;4.364;2023-07-22T03:59:47;20.17;;;10.70;;
23078;SDS011;11707;50.830;4.364;2023-07-22T04:02:17;20.10;;;11.43;;
23078;SDS011;11707;50.830;4.364;2023-07-22T04:04:42;17.02;;;10.30;;
23078;SDS011;11707;50.830;4.364;2023-07-22T04:07:08;22.83;;;11.57;;
23078;SDS011;11707;50.830;4.364;2023-07-22T04:09:36;25.10;;;10.98;;
23078;SDS011;11707;50.830;4.364;2023-07-22T04:12:04;20.25;;;10.55;;
23078;SDS011;11707;50.830;4.364;2023-07-22T04:14:30;18.15;;;11.55;;
23078;SDS011;11707;50.830;4.364;2023-07-22T04:16:56;23.15;;;10.70;;
23078;SDS011;11707;50.830;4.364;2023-07-22T04:19:22;23.17;;;11.77;;
23078;SDS011;11707;50.830;4.364;2023-07-22T04:21:48;19.17;;;10.85;;
23078;SDS011;11707;50.830;4.364;2023-07-22T04:24:13;19.10;;;10.70;;
23078;SDS011;11707;50.830;4.364;2023-07-22T04:26:40;20.17;;;10.45;;
23078;SDS011;11707;50.830;4.364;2023-07-22T04:29:10;18.35;;;11.27;;
23078;SDS011;11707;50.830;4.364;2023-07-22T04:31:37;20.92;;;11.02;;
23078;SDS011;11707;50.830;4.364;2023-07-22T04:34:03;21.80;;;11.77;;
23078;SDS011;11707;50.830;4.364;2023-07-22T04:36:28;19.73;;;10.52;;
23078;SDS011;11707;50.830;4.364;2023-07-22T04:38:54;15.98;;;10.77;;
23078;SDS011;11707;50.830;4.364;2023-07-22T04:41:22;18.23;;;11.65;;
23078;SDS011;11707;50.830;4.364;2023-07-22T04:43:50;22.27;;;10.73;;
23078;SDS011;11707;50.830;4.364;2023-07-22T04:46:16;16.02;;;10.45;;
23078;SDS011;11707;50.830;4.364;2023-07-22T04:48:44;18.83;;;11.15;;
23078;SDS011;11707;50.830;4.364;2023-07-22T04:51:10;24.08;;;11.27;;
23078;SDS011;11707;50.830;4.364;2023-07-22T04:53:36;20.40;;;11.25;;
23078;SDS011;11707;50.830;4.364;2023-07-22T04:56:03;20.90;;;10.27;;
23078;SDS011;11707;50.830;4.364;2023-07-22T04:58:29;20.60;;;11.23;;
23078;SDS011;11707;50.830;4.364;2023-07-22T05:00:57;20.17;;;9.77;;
23078;SDS011;11707;50.830;4.364;2023-07-22T05:03:23;17.88;;;9.60;;
23078;SDS011;11707;50.830;4.364;2023-07-22T05:05:51;20.02;;;10.13;;
23078;SDS011;11707;50.830;4.364;2023-07-22T05:08:19;17.42;;;10.32;;
23078;SDS011;11707;50.830;4.364;2023-07-22T05:10:46;16.95;;;9.60;;
23078;SDS011;11707;50.830;4.364;2023-07-22T05:13:11;17.52;;;10.13;;
23078;SDS011;11707;50.830;4.364;2023-07-22T05:15:40;17.45;;;10.48;;
23078;SDS011;11707;50.830;4.364;2023-07-22T05:18:05;17.40;;;10.88;;
23078;SDS011;11707;50.830;4.364;2023-07-22T05:20:33;18.05;;;9.65;;
23078;SDS011;11707;50.830;4.364;2023-07-22T05:22:59;19.33;;;10.70;;
23078;SDS011;11707;50.830;4.364;2023-07-22T05:25:24;20.55;;;10.18;;
23078;SDS011;11707;50.830;4.364;2023-07-22T05:27:50;17.23;;;9.50;;
23078;SDS011;11707;50.830;4.364;2023-07-22T05:30:15;15.75;;;9.35;;
23078;SDS011;11707;50.830;4.364;2023-07-22T05:32:44;20.65;;;9.57;;
23078;SDS011;11707;50.830;4.364;2023-07-22T05:35:09;19.92;;;9.27;;
23078;SDS011;11707;50.830;4.364;2023-07-22T05:37:35;19.58;;;9.65;;
23078;SDS011;11707;50.830;4.364;2023-07-22T05:40:01;18.25;;;9.30;;
23078;SDS011;11707;50.830;4.364;2023-07-22T05:42:27;19.27;;;9.00;;
23078;SDS011;11707;50.830;4.364;2023-07-22T05:44:54;18.33;;;8.90;;
23078;SDS011;11707;50.830;4.364;2023-07-22T05:47:21;13.82;;;8.65;;
23078;SDS011;11707;50.830;4.364;2023-07-22T05:49:47;18.75;;;7.80;;
23078;SDS011;11707;50.830;4.364;2023-07-22T05:52:12;19.90;;;8.00;;
23078;SDS011;11707;50.830;4.364;2023-07-22T05:54:38;21.15;;;9.27;;
23078;SDS011;11707;50.830;4.364;2023-07-22T05:57:04;17.75;;;8.60;;
23078;SDS011;11707;50.830;4.364;2023-07-22T05:59:33;16.73;;;7.75;;
23078;SDS011;11707;50.830;4.364;2023-07-22T06:02:01;21.83;;;7.65;;
23078;SDS011;11707;50.830;4.364;2023-07-22T06:04:28;21.90;;;9.05;;
23078;SDS011;11707;50.830;4.364;2023-07-22T06:06:53;17.17;;;8.00;;
23078;SDS011;11707;50.830;4.364;2023-07-22T06:09:19;15.85;;;7.00;;
23078;SDS011;11707;50.830;4.364;2023-07-22T06:11:45;16.05;;;7.57;;
23078;SDS011;11707;50.830;4.364;2023-07-22T06:14:13;17.20;;;7.45;;
23078;SDS011;11707;50.830;4.364;2023-07-22T06:16:41;12.95;;;7.65;;
23078;SDS011;11707;50.830;4.364;2023-07-22T06:19:07;16.83;;;7.38;;
23078;SDS011;11707;50.830;4.364;2023-07-22T06:21:33;16.58;;;7.88;;
23078;SDS011;11707;50.830;4.364;2023-07-22T06:23:58;13.43;;;6.60;;
23078;SDS011;11707;50.830;4.364;2023-07-22T06:26:26;15.93;;;7.18;;
23078;SDS011;11707;50.830;4.364;2023-07-22T06:28:52;14.45;;;6.43;;
23078;SDS011;11707;50.830;4.364;2023-07-22T06:31:18;14.77;;;7.30;;
23078;SDS011;11707;50.830;4.364;2023-07-22T06:33:43;21.65;;;8.15;;
23078;SDS011;11707;50.830;4.364;2023-07-22T06:36:09;16.80;;;7.95;;
23078;SDS011;11707;50.830;4.364;2023-07-22T06:38:37;14.90;;;6.75;;
23078;SDS011;11707;50.830;4.364;2023-07-22T06:41:02;13.85;;;7.22;;
23078;SDS011;11707;50.830;4.364;2023-07-22T06:43:28;15.35;;;6.28;;
23078;SDS011;11707;50.830;4.364;2023-07-22T06:45:54;14.27;;;7.50;;
23078;SDS011;11707;50.830;4.364;2023-07-22T06:48:20;12.80;;;7.00;;
23078;SDS011;11707;50.830;4.364;2023-07-22T06:50:48;17.67;;;7.88;;
23078;SDS011;11707;50.830;4.364;2023-07-22T06:53:14;15.70;;;6.45;;
23078;SDS011;11707;50.830;4.364;2023-07-22T06:55:51;18.30;;;6.85;;
23078;SDS011;11707;50.830;4.364;2023-07-22T06:58:19;19.67;;;7.15;;
23078;SDS011;11707;50.830;4.364;2023-07-22T07:00:45;13.85;;;7.88;;
23078;SDS011;11707;50.830;4.364;2023-07-22T07:03:11;14.63;;;7.20;;
23078;SDS011;11707;50.830;4.364;2023-07-22T07:05:37;12.80;;;6.93;;
23078;SDS011;11707;50.830;4.364;2023-07-22T07:08:06;16.02;;;6.97;;
23078;SDS011;11707;50.830;4.364;2023-07-22T07:10:36;13.70;;;7.10;;
23078;SDS011;11707;50.830;4.364;2023-07-22T07:13:03;12.23;;;5.68;;
23078;SDS011;11707;50.830;4.364;2023-07-22T07:15:28;16.38;;;7.22;;
23078;SDS011;11707;50.830;4.364;2023-07-22T07:17:54;13.93;;;6.35;;
23078;SDS011;11707;50.830;4.364;2023-07-22T07:20:20;10.90;;;6.45;;
23078;SDS011;11707;50.830;4.364;2023-07-22T07:22:45;15.65;;;6.65;;
23078;SDS011;11707;50.830;4.364;2023-07-22T07:25:13;13.25;;;6.63;;
23078;SDS011;11707;50.830;4.364;2023-07-22T07:27:40;13.80;;;6.43;;
23078;SDS011;11707;50.830;4.364;2023-07-22T07:30:08;12.15;;;6.00;;
23078;SDS011;11707;50.830;4.364;2023-07-22T07:32:36;12.68;;;5.88;;
23078;SDS011;11707;50.830;4.364;2023-07-22T07:35:02;18.58;;;6.78;;
23078;SDS011;11707;50.830;4.364;2023-07-22T07:37:29;12.90;;;6.15;;
23078;SDS011;11707;50.830;4.364;2023-07-22T07:39:54;11.93;;;5.57;;
23078;SDS011;11707;50.830;4.364;2023-07-22T07:42:24;22.00;;;6.22;;
23078;SDS011;11707;50.830;4.364;2023-07-22T07:44:53;10.43;;;5.50;;
23078;SDS011;11707;50.830;4.364;2023-07-22T07:47:19;12.80;;;5.57;;
23078;SDS011;11707;50.830;4.364;2023-07-22T07:49:45;11.27;;;6.07;;
23078;SDS011;11707;50.830;4.364;2023-07-22T07:52:11;11.00;;;5.18;;
23078;SDS011;11707;50.830;4.364;2023-07-22T07:54:39;11.60;;;6.10;;
23078;SDS011;11707;50.830;4.364;2023-07-22T07:57:07;13.05;;;5.60;;
23078;SDS011;11707;50.830;4.364;2023-07-22T07:59:32;13.77;;;5.25;;
23078;SDS011;11707;50.830;4.364;2023-07-22T08:01:58;14.30;;;5.90;;
23078;SDS011;11707;50.830;4.364;2023-07-22T08:04:23;13.68;;;6.25;;
23078;SDS011;11707;50.830;4.364;2023-07-22T08:06:52;35.60;;;24.45;;
23078;SDS011;11707;50.830;4.364;2023-07-22T08:09:20;13.15;;;5.95;;
23078;SDS011;11707;50.830;4.364;2023-07-22T08:11:46;13.73;;;5.65;;
23078;SDS011;11707;50.830;4.364;2023-07-22T08:14:14;12.20;;;4.72;;
23078;SDS011;11707;50.830;4.364;2023-07-22T08:16:40;13.02;;;5.07;;
23078;SDS011;11707;50.830;4.364;2023-07-22T08:19:05;13.10;;;5.25;;
23078;SDS011;11707;50.830;4.364;2023-07-22T08:21:31;10.07;;;5.10;;
23078;SDS011;11707;50.830;4.364;2023-07-22T08:23:56;11.45;;;4.93;;
23078;SDS011;11707;50.830;4.364;2023-07-22T08:26:22;15.60;;;5.40;;
23078;SDS011;11707;50.830;4.364;2023-07-22T08:28:50;13.57;;;5.18;;
23078;SDS011;11707;50.830;4.364;2023-07-22T08:31:18;9.65;;;4.13;;
23078;SDS011;11707;50.830;4.364;2023-07-22T08:33:44;16.23;;;5.00;;
23078;SDS011;11707;50.830;4.364;2023-07-22T08:36:09;14.23;;;4.55;;
23078;SDS011;11707;50.830;4.364;2023-07-22T08:38:35;12.88;;;5.00;;
23078;SDS011;11707;50.830;4.364;2023-07-22T08:41:01;15.35;;;4.97;;
23078;SDS011;11707;50.830;4.364;2023-07-22T08:43:27;11.38;;;4.22;;
23078;SDS011;11707;50.830;4.364;2023-07-22T08:45:54;10.82;;;3.97;;
23078;SDS011;11707;50.830;4.364;2023-07-22T08:48:26;8.45;;;4.10;;
23078;SDS011;11707;50.830;4.364;2023-07-22T08:51:04;8.13;;;3.97;;
23078;SDS011;11707;50.830;4.364;2023-07-22T08:53:35;5.75;;;3.35;;
23078;SDS011;11707;50.830;4.364;2023-07-22T08:56:02;9.52;;;4.68;;
23078;SDS011;11707;50.830;4.364;2023-07-22T08:58:30;9.20;;;3.22;;
23078;SDS011;11707;50.830;4.364;2023-07-22T09:00:56;7.60;;;3.60;;
23078;SDS011;11707;50.830;4.364;2023-07-22T09:03:24;6.60;;;3.10;;
23078;SDS011;11707;50.830;4.364;2023-07-22T09:05:49;9.10;;;3.17;;
23078;SDS011;11707;50.830;4.364;2023-07-22T09:08:15;7.93;;;3.10;;
23078;SDS011;11707;50.830;4.364;2023-07-22T09:10:42;5.63;;;2.63;;
23078;SDS011;11707;50.830;4.364;2023-07-22T09:13:08;11.90;;;3.00;;
23078;SDS011;11707;50.830;4.364;2023-07-22T09:15:35;3.65;;;2.17;;
23078;SDS011;11707;50.830;4.364;2023-07-22T09:18:02;4.80;;;2.10;;
23078;SDS011;11707;50.830;4.364;2023-07-22T09:20:31;5.28;;;2.40;;
23078;SDS011;11707;50.830;4.364;2023-07-22T09:22:58;6.38;;;2.50;;
23078;SDS011;11707;50.830;4.364;2023-07-22T09:25:26;5.50;;;2.40;;
23078;SDS011;11707;50.830;4.364;2023-07-22T09:27:53;7.43;;;1.95;;
23078;SDS011;11707;50.830;4.364;2023-07-22T09:30:27;5.60;;;2.10;;
23078;SDS011;11707;50.830;4.364;2023-07-22T09:32:54;5.93;;;2.70;;
23078;SDS011;11707;50.830;4.364;2023-07-22T09:35:25;5.32;;;1.75;;
23078;SDS011;11707;50.830;4.364;2023-07-22T09:37:55;6.78;;;2.30;;
23078;SDS011;11707;50.830;4.364;2023-07-22T09:40:22;4.43;;;2.15;;
23078;SDS011;11707;50.830;4.364;2023-07-22T09:45:16;6.55;;;2.28;;
23078;SDS011;11707;50.830;4.364;2023-07-22T09:47:49;5.93;;;1.92;;
23078;SDS011;11707;50.830;4.364;2023-07-22T09:50:19;4.80;;;2.00;;
23078;SDS011;11707;50.830;4.364;2023-07-22T09:52:54;4.32;;;1.98;;
23078;SDS011;11707;50.830;4.364;2023-07-22T09:55:24;13.05;;;2.28;;
23078;SDS011;11707;50.830;4.364;2023-07-22T09:57:54;5.22;;;1.83;;
23078;SDS011;11707;50.830;4.364;2023-07-22T10:00:24;3.90;;;1.77;;
23078;SDS011;11707;50.830;4.364;2023-07-22T10:02:52;8.90;;;2.17;;
23078;SDS011;11707;50.830;4.364;2023-07-22T10:05:22;4.55;;;2.10;;
23078;SDS011;11707;50.830;4.364;2023-07-22T10:07:50;6.97;;;2.03;;
23078;SDS011;11707;50.830;4.364;2023-07-22T10:10:17;5.28;;;2.15;;
23078;SDS011;11707;50.830;4.364;2023-07-22T10:12:50;3.13;;;1.60;;
23078;SDS011;11707;50.830;4.364;2023-07-22T10:15:18;2.60;;;1.73;;
23078;SDS011;11707;50.830;4.364;2023-07-22T10:17:44;3.38;;;1.90;;
23078;SDS011;11707;50.830;4.364;2023-07-22T10:20:12;2.63;;;1.35;;
23078;SDS011;11707;50.830;4.364;2023-07-22T10:22:44;5.38;;;1.40;;
23078;SDS011;11707;50.830;4.364;2023-07-22T10:25:13;5.95;;;1.42;;
23078;SDS011;11707;50.830;4.364;2023-07-22T10:27:40;2.63;;;1.42;;
23078;SDS011;11707;50.830;4.364;2023-07-22T10:30:07;3.33;;;1.35;;
23078;SDS011;11707;50.830;4.364;2023-07-22T10:32:39;3.50;;;2.10;;
23078;SDS011;11707;50.830;4.364;2023-07-22T10:35:09;3.72;;;1.65;;
23078;SDS011;11707;50.830;4.364;2023-07-22T10:37:39;3.15;;;1.20;;
23078;SDS011;11707;50.830;4.364;2023-07-22T10:42:43;5.47;;;1.27;;
23078;SDS011;11707;50.830;4.364;2023-07-22T10:45:56;4.63;;;1.63;;
23078;SDS011;11707;50.830;4.364;2023-07-22T10:48:17;2.70;;;1.48;;
23078;SDS011;11707;50.830;4.364;2023-07-22T10:50:44;3.28;;;1.45;;
23078;SDS011;11707;50.830;4.364;2023-07-22T10:53:36;5.43;;;1.70;;
23078;SDS011;11707;50.830;4.364;2023-07-22T11:06:33;2.95;;;1.48;;
23078;SDS011;11707;50.830;4.364;2023-07-22T11:08:59;3.72;;;1.80;;
23078;SDS011;11707;50.830;4.364;2023-07-22T11:11:39;4.05;;;2.40;;
23078;SDS011;11707;50.830;4.364;2023-07-22T11:16:46;3.88;;;1.75;;
23078;SDS011;11707;50.830;4.364;2023-07-22T11:19:18;6.32;;;2.10;;
23078;SDS011;11707;50.830;4.364;2023-07-22T11:21:46;5.72;;;2.05;;
23078;SDS011;11707;50.830;4.364;2023-07-22T11:24:14;3.58;;;1.92;;
23078;SDS011;11707;50.830;4.364;2023-07-22T11:26:45;7.30;;;2.00;;
23078;SDS011;11707;50.830;4.364;2023-07-22T11:29:12;2.95;;;1.67;;
23078;SDS011;11707;50.830;4.364;2023-07-22T11:31:40;3.30;;;1.77;;
23078;SDS011;11707;50.830;4.364;2023-07-22T11:34:25;5.40;;;2.10;;
23078;SDS011;11707;50.830;4.364;2023-07-22T11:36:54;2.67;;;1.73;;
23078;SDS011;11707;50.830;4.364;2023-07-22T11:39:31;4.93;;;1.70;;
23078;SDS011;11707;50.830;4.364;2023-07-22T11:42:01;4.45;;;2.08;;
23078;SDS011;11707;50.830;4.364;2023-07-22T11:44:28;6.28;;;2.00;;
23078;SDS011;11707;50.830;4.364;2023-07-22T11:46:58;3.05;;;1.65;;
23078;SDS011;11707;50.830;4.364;2023-07-22T11:49:31;2.65;;;1.70;;
23078;SDS011;11707;50.830;4.364;2023-07-22T11:54:33;2.65;;;1.52;;
23078;SDS011;11707;50.830;4.364;2023-07-22T11:59:51;4.43;;;2.42;;
23078;SDS011;11707;50.830;4.364;2023-07-22T12:02:25;2.58;;;1.50;;
23078;SDS011;11707;50.830;4.364;2023-07-22T12:04:57;4.93;;;1.85;;
23078;SDS011;11707;50.830;4.364;2023-07-22T12:07:30;3.08;;;1.88;;
23078;SDS011;11707;50.830;4.364;2023-07-22T12:10:01;3.40;;;1.58;;
23078;SDS011;11707;50.830;4.364;2023-07-22T12:20:25;4.38;;;1.88;;
23078;SDS011;11707;50.830;4.364;2023-07-22T12:22:56;4.60;;;1.50;;
23078;SDS011;11707;50.830;4.364;2023-07-22T12:25:22;7.18;;;1.52;;
23078;SDS011;11707;50.830;4.364;2023-07-22T12:27:49;3.25;;;1.58;;
23078;SDS011;11707;50.830;4.364;2023-07-22T12:30:15;3.67;;;1.45;;
23078;SDS011;11707;50.830;4.364;2023-07-22T12:32:41;2.25;;;1.35;;
23078;SDS011;11707;50.830;4.364;2023-07-22T12:35:07;3.58;;;1.88;;
23078;SDS011;11707;50.830;4.364;2023-07-22T12:37:34;4.93;;;1.48;;
23078;SDS011;11707;50.830;4.364;2023-07-22T12:40:00;5.55;;;1.20;;
23078;SDS011;11707;50.830;4.364;2023-07-22T12:42:26;3.40;;;1.40;;
23078;SDS011;11707;50.830;4.364;2023-07-22T12:44:52;5.10;;;1.80;;
23078;SDS011;11707;50.830;4.364;2023-07-22T12:47:20;5.05;;;1.50;;
23078;SDS011;11707;50.830;4.364;2023-07-22T12:49:46;2.72;;;1.50;;
23078;SDS011;11707;50.830;4.364;2023-07-22T12:52:11;5.32;;;1.65;;
23078;SDS011;11707;50.830;4.364;2023-07-22T12:54:38;3.88;;;1.67;;
23078;SDS011;11707;50.830;4.364;2023-07-22T12:57:04;4.72;;;1.67;;
23078;SDS011;11707;50.830;4.364;2023-07-22T12:59:30;4.55;;;2.17;;
23078;SDS011;11707;50.830;4.364;2023-07-22T13:01:56;2.58;;;1.45;;
23078;SDS011;11707;50.830;4.364;2023-07-22T13:04:23;6.25;;;1.98;;
23078;SDS011;11707;50.830;4.364;2023-07-22T13:06:49;4.72;;;1.38;;
23078;SDS011;11707;50.830;4.364;2023-07-22T13:09:16;2.92;;;1.25;;
23078;SDS011;11707;50.830;4.364;2023-07-22T13:11:43;4.20;;;1.58;;
23078;SDS011;11707;50.830;4.364;2023-07-22T13:14:08;5.05;;;1.35;;
23078;SDS011;11707;50.830;4.364;2023-07-22T13:16:34;4.00;;;1.65;;
23078;SDS011;11707;50.830;4.364;2023-07-22T13:19:00;3.22;;;1.48;;
23078;SDS011;11707;50.830;4.364;2023-07-22T13:21:28;2.92;;;1.60;;
23078;SDS011;11707;50.830;4.364;2023-07-22T13:23:54;4.20;;;1.30;;
23078;SDS011;11707;50.830;4.364;2023-07-22T13:26:20;2.72;;;1.27;;
23078;SDS011;11707;50.830;4.364;2023-07-22T13:28:50;3.10;;;1.30;;
23078;SDS011;11707;50.830;4.364;2023-07-22T13:31:17;3.85;;;1.70;;
23078;SDS011;11707;50.830;4.364;2023-07-22T13:33:44;2.90;;;1.33;;
23078;SDS011;11707;50.830;4.364;2023-07-22T13:36:11;4.07;;;1.70;;
23078;SDS011;11707;50.830;4.364;2023-07-22T13:38:37;3.05;;;1.83;;
23078;SDS011;11707;50.830;4.364;2023-07-22T13:41:03;3.80;;;1.60;;
23078;SDS011;11707;50.830;4.364;2023-07-22T13:43:28;6.93;;;1.50;;
23078;SDS011;11707;50.830;4.364;2023-07-22T13:45:54;2.55;;;1.40;;
23078;SDS011;11707;50.830;4.364;2023-07-22T13:48:20;5.45;;;1.52;;
23078;SDS011;11707;50.830;4.364;2023-07-22T13:50:45;4.75;;;1.73;;
23078;SDS011;11707;50.830;4.364;2023-07-22T13:53:11;2.70;;;1.50;;
23078;SDS011;11707;50.830;4.364;2023-07-22T13:55:37;4.25;;;2.50;;
23078;SDS011;11707;50.830;4.364;2023-07-22T13:58:06;6.95;;;1.88;;
23078;SDS011;11707;50.830;4.364;2023-07-22T14:00:31;9.68;;;2.00;;
23078;SDS011;11707;50.830;4.364;2023-07-22T14:02:57;6.97;;;1.83;;
23078;SDS011;11707;50.830;4.364;2023-07-22T14:05:22;4.18;;;1.60;;
23078;SDS011;11707;50.830;4.364;2023-07-22T14:07:51;3.50;;;1.67;;
23078;SDS011;11707;50.830;4.364;2023-07-22T14:10:17;6.57;;;1.75;;
23078;SDS011;11707;50.830;4.364;2023-07-22T14:12:45;3.17;;;1.58;;
23078;SDS011;11707;50.830;4.364;2023-07-22T14:15:16;4.63;;;1.65;;
23078;SDS011;11707;50.830;4.364;2023-07-22T14:17:41;5.00;;;1.65;;
23078;SDS011;11707;50.830;4.364;2023-07-22T14:20:09;4.20;;;1.52;;
23078;SDS011;11707;50.830;4.364;2023-07-22T14:22:39;3.95;;;1.45;;
23078;SDS011;11707;50.830;4.364;2023-07-22T14:25:05;3.88;;;1.50;;
23078;SDS011;11707;50.830;4.364;2023-07-22T14:27:31;2.30;;;1.50;;
23078;SDS011;11707;50.830;4.364;2023-07-22T14:29:57;4.90;;;1.55;;
23078;SDS011;11707;50.830;4.364;2023-07-22T14:32:22;4.80;;;1.20;;
23078;SDS011;11707;50.830;4.364;2023-07-22T14:34:48;3.55;;;1.40;;
23078;SDS011;11707;50.830;4.364;2023-07-22T14:37:14;4.22;;;1.95;;
23078;SDS011;11707;50.830;4.364;2023-07-22T14:39:39;5.45;;;2.03;;
23078;SDS011;11707;50.830;4.364;2023-07-22T14:42:07;3.60;;;1.50;;
23078;SDS011;11707;50.830;4.364;2023-07-22T14:44:33;5.28;;;1.58;;
23078;SDS011;11707;50.830;4.364;2023-07-22T14:46:59;4.57;;;1.38;;
23078;SDS011;11707;50.830;4.364;2023-07-22T14:49:24;4.85;;;1.83;;
23078;SDS011;11707;50.830;4.364;2023-07-22T14:51:52;6.22;;;1.63;;
23078;SDS011;11707;50.830;4.364;2023-07-22T14:54:17;3.88;;;1.20;;
23078;SDS011;11707;50.830;4.364;2023-07-22T14:56:43;7.25;;;1.65;;
23078;SDS011;11707;50.830;4.364;2023-07-22T14:59:09;9.00;;;1.23;;
23078;SDS011;11707;50.830;4.364;2023-07-22T15:01:37;3.80;;;1.73;;
23078;SDS011;11707;50.830;4.364;2023-07-22T15:04:04;3.03;;;1.50;;
23078;SDS011;11707;50.830;4.364;2023-07-22T15:06:30;6.72;;;1.30;;
23078;SDS011;11707;50.830;4.364;2023-07-22T15:08:56;5.07;;;1.60;;
23078;SDS011;11707;50.830;4.364;2023-07-22T15:11:24;3.33;;;1.20;;